Time;durP1;ratioP1;P1;durP2;ratioP2;P2;SDS_P1;SDS_P2;PMS_P1;PMS_P2;Temp;Humidity;BMP_temperature;BMP_pressure;BME280_temperature;BME280_humidity;BME280_pressure;Samples;Min_cycle;Max_cycle;Signal;HPM_P1;HPM_P2
2023/10/01 00:01:46;;;;;;;11.07;7.13;;;14.80;99.90;;;;;;5110319;27;20100;-63
2023/10/01 00:04:12;;;;;;;12.90;6.95;;;14.80;99.90;;;;;;5110881;27;20059;-63
2023/10/01 00:06:39;;;;;;;13.18;7.03;;;14.70;99.90;;;;;;5129499;27;20542;-63
2023/10/01 00:09:09;;;;;;;12.32;7.20;;;14.70;99.90;;;;;;5093458;27;20039;-63
2023/10/01 00:11:39;;;;;;;10.43;6.78;;;14.70;99.90;;;;;;5125585;27;20558;-63
2023/10/01 00:14:06;;;;;;;15.18;7.20;;;14.70;99.90;;;;;;5130743;27;20047;-63
2023/10/01 00:16:32;;;;;;;12.82;6.97;;;14.70;99.90;;;;;;5111100;27;20154;-63
2023/10/01 00:18:59;;;;;;;10.60;6.68;;;14.70;99.90;;;;;;5126189;27;20038;-64
2023/10/01 00:21:27;;;;;;;12.93;6.95;;;14.60;99.90;;;;;;5109707;27;20047;-63
2023/10/01 00:23:54;;;;;;;11.32;7.28;;;14.60;99.90;;;;;;5108983;27;20043;-63
2023/10/01 00:26:20;;;;;;;13.15;6.68;;;14.70;99.90;;;;;;5129291;27;20043;-63
2023/10/01 00:28:45;;;;;;;14.15;7.00;;;14.60;99.90;;;;;;5113054;27;20035;-63
2023/10/01 00:31:11;;;;;;;14.18;7.68;;;14.60;99.90;;;;;;5108807;27;20383;-63
2023/10/01 00:33:37;;;;;;;16.73;8.68;;;14.50;99.90;;;;;;5129666;27;20054;-63
2023/10/01 00:36:03;;;;;;;13.10;7.28;;;14.50;99.90;;;;;;5110442;27;20122;-63
2023/10/01 00:38:29;;;;;;;16.17;8.13;;;14.50;99.90;;;;;;5112703;27;20047;-63
2023/10/01 00:40:54;;;;;;;10.38;6.90;;;14.50;99.90;;;;;;5107366;27;20489;-63
2023/10/01 00:43:29;;;;;;;15.60;8.00;;;14.50;99.90;;;;;;5128093;27;20116;-63
2023/10/01 00:45:56;;;;;;;12.10;7.22;;;14.50;99.90;;;;;;5111180;27;20478;-63
2023/10/01 00:48:23;;;;;;;13.82;7.30;;;14.50;99.90;;;;;;5094510;27;20039;-63
2023/10/01 00:50:54;;;;;;;12.48;8.00;;;14.50;99.90;;;;;;5109564;27;20107;-63
2023/10/01 00:53:20;;;;;;;12.93;6.82;;;14.60;99.90;;;;;;5110016;27;20401;-63
2023/10/01 00:55:48;;;;;;;13.15;6.90;;;14.60;99.90;;;;;;5125755;27;20031;-63
2023/10/01 00:58:15;;;;;;;12.75;7.30;;;14.60;99.90;;;;;;5095001;27;20561;-63
2023/10/01 01:00:43;;;;;;;16.95;7.72;;;14.60;99.90;;;;;;5126622;27;20039;-63
2023/10/01 01:03:09;;;;;;;13.45;7.95;;;14.60;99.90;;;;;;5125934;27;20039;-63
2023/10/01 01:05:37;;;;;;;13.27;7.43;;;14.60;99.90;;;;;;5103133;27;20470;-63
2023/10/01 01:08:10;;;;;;;12.57;8.15;;;14.60;99.90;;;;;;5112002;27;20036;-63
2023/10/01 01:10:41;;;;;;;12.55;7.70;;;14.60;99.90;;;;;;5110731;28;20070;-63
2023/10/01 01:13:07;;;;;;;11.73;7.60;;;14.60;99.90;;;;;;5111578;27;20508;-63
2023/10/01 01:15:34;;;;;;;11.65;7.63;;;14.60;99.90;;;;;;5092566;27;20035;-63
2023/10/01 01:18:06;;;;;;;12.02;7.60;;;14.60;99.90;;;;;;5111584;28;20043;-63
2023/10/01 01:20:36;;;;;;;11.40;7.75;;;14.70;99.90;;;;;;5128225;28;20043;-63
2023/10/01 01:23:04;;;;;;;11.48;7.10;;;14.70;99.90;;;;;;5111539;28;20516;-63
2023/10/01 01:25:32;;;;;;;15.68;7.97;;;14.70;99.90;;;;;;5108379;28;20371;-63
2023/10/01 01:27:59;;;;;;;13.40;8.63;;;14.70;99.90;;;;;;5112253;28;20457;-63
2023/10/01 01:30:29;;;;;;;11.52;7.65;;;14.70;99.90;;;;;;5089545;28;20038;-63
2023/10/01 01:32:57;;;;;;;12.48;8.23;;;14.70;99.90;;;;;;5112022;28;20043;-63
2023/10/01 01:35:28;;;;;;;14.55;8.73;;;14.70;99.90;;;;;;5108934;28;20043;-63
2023/10/01 01:37:58;;;;;;;13.73;8.70;;;14.70;99.90;;;;;;5109579;28;20088;-63
2023/10/01 01:40:36;;;;;;;13.15;9.25;;;14.70;99.90;;;;;;5110132;28;20043;-63
2023/10/01 01:45:54;;;;;;;14.43;8.50;;;14.70;99.90;;;;;;5104764;28;20109;-63
2023/10/01 01:48:34;;;;;;;13.48;9.48;;;14.60;99.90;;;;;;5110236;28;20038;-63
2023/10/01 01:51:01;;;;;;;15.77;9.00;;;14.60;99.90;;;;;;5127143;28;20179;-63
2023/10/01 01:53:35;;;;;;;13.77;8.95;;;14.60;99.90;;;;;;5111397;28;20058;-63
2023/10/01 01:56:10;;;;;;;13.48;9.30;;;14.70;99.90;;;;;;5106486;27;20074;-63
2023/10/01 01:58:37;;;;;;;13.60;8.80;;;14.60;99.90;;;;;;5114262;27;20058;-64
2023/10/01 02:01:17;;;;;;;13.48;8.73;;;14.70;99.90;;;;;;5115087;27;20091;-63
2023/10/01 02:03:51;;;;;;;13.73;8.57;;;14.70;99.90;;;;;;5093724;28;20130;-63
2023/10/01 02:06:26;;;;;;;12.77;9.20;;;14.60;99.90;;;;;;5110625;27;20050;-63
2023/10/01 02:08:58;;;;;;;14.65;9.10;;;14.70;99.90;;;;;;5108785;27;20035;-63
2023/10/01 02:11:24;;;;;;;11.82;8.32;;;14.60;99.90;;;;;;5092644;28;20123;-63
2023/10/01 02:13:51;;;;;;;12.50;8.60;;;14.60;99.90;;;;;;5106566;28;20043;-63
2023/10/01 02:19:11;;;;;;;14.65;9.73;;;14.70;99.90;;;;;;5110005;28;20035;-63
2023/10/01 02:21:47;;;;;;;14.48;9.00;;;14.70;99.90;;;;;;5092846;28;20122;-63
2023/10/01 02:24:23;;;;;;;10.68;8.20;;;14.70;99.90;;;;;;5109591;28;20040;-63
2023/10/01 02:27:03;;;;;;;15.32;9.60;;;14.70;99.90;;;;;;5104244;27;20043;-63
2023/10/01 02:29:32;;;;;;;14.23;9.25;;;14.70;99.90;;;;;;5110273;28;20093;-63
2023/10/01 02:31:58;;;;;;;12.30;8.95;;;14.70;99.90;;;;;;5111313;28;20039;-63
2023/10/01 02:34:26;;;;;;;15.02;8.85;;;14.70;99.90;;;;;;5108427;28;20074;-64
2023/10/01 02:36:51;;;;;;;13.55;8.82;;;14.60;99.90;;;;;;5110518;28;20512;-63
2023/10/01 02:39:29;;;;;;;13.93;9.07;;;14.60;99.90;;;;;;5109518;27;20040;-63
2023/10/01 02:44:39;;;;;;;13.23;8.80;;;14.60;99.90;;;;;;5109389;28;20509;-63
2023/10/01 02:47:26;;;;;;;16.15;9.52;;;14.60;99.90;;;;;;5110468;28;20065;-63
2023/10/01 02:49:53;;;;;;;12.63;9.70;;;14.70;99.90;;;;;;5109090;28;20576;-63
2023/10/01 02:52:26;;;;;;;11.38;8.85;;;14.60;99.90;;;;;;5090719;28;20048;-63
2023/10/01 02:54:54;;;;;;;16.48;8.77;;;14.70;99.90;;;;;;5092258;28;20064;-63
2023/10/01 02:57:24;;;;;;;11.52;7.65;;;14.70;99.90;;;;;;5106049;27;20027;-63
2023/10/01 03:00:20;;;;;;;14.60;9.38;;;14.70;99.90;;;;;;5106058;28;20035;-63
2023/10/01 03:02:51;;;;;;;10.32;8.02;;;14.70;99.90;;;;;;5106840;28;20498;-63
2023/10/01 03:07:52;;;;;;;15.23;8.88;;;14.70;99.90;;;;;;5105656;27;20075;-63
2023/10/01 03:10:31;;;;;;;12.20;8.27;;;14.60;99.90;;;;;;5110826;28;20085;-63
2023/10/01 03:13:00;;;;;;;13.55;8.32;;;14.60;99.90;;;;;;5091110;28;20085;-63
2023/10/01 03:15:35;;;;;;;11.13;7.35;;;14.60;99.90;;;;;;5106688;27;20078;-63
2023/10/01 03:18:07;;;;;;;12.52;7.70;;;14.70;99.90;;;;;;5106870;27;20048;-63
2023/10/01 03:23:10;;;;;;;10.85;7.85;;;14.70;99.90;;;;;;5107436;28;20040;-63
2023/10/01 03:25:57;;;;;;;11.05;7.40;;;14.70;99.90;;;;;;5107730;28;20032;-63
2023/10/01 03:28:26;;;;;;;11.38;6.85;;;14.70;99.90;;;;;;5105262;28;20046;-63
2023/10/01 03:31:16;;;;;;;12.15;7.00;;;14.70;99.90;;;;;;5090356;28;20449;-63
2023/10/01 03:33:45;;;;;;;11.07;7.13;;;14.70;99.90;;;;;;5105324;28;20139;-63
2023/10/01 03:36:12;;;;;;;10.40;6.70;;;14.70;99.90;;;;;;5108577;28;20082;-63
2023/10/01 03:38:39;;;;;;;10.00;6.97;;;14.70;99.90;;;;;;5104266;28;20039;-63
2023/10/01 03:41:20;;;;;;;9.35;6.85;;;14.70;99.90;;;;;;5106710;27;20086;-63
2023/10/01 03:43:47;;;;;;;13.40;7.07;;;14.70;99.90;;;;;;5107033;27;20036;-63
2023/10/01 03:46:14;;;;;;;9.02;6.68;;;14.70;99.90;;;;;;5110338;28;20092;-63
2023/10/01 03:51:58;;;;;;;12.20;7.43;;;14.80;99.90;;;;;;5028578;28;20444;-63
2023/10/01 03:57:17;;;;;;;13.10;7.38;;;14.80;99.90;;;;;;5045351;28;20076;-63
2023/10/01 03:59:51;;;;;;;;;;;14.80;99.90;;;;;;5024860;28;20066;-63
2023/10/01 04:02:28;;;;;;;13.82;8.57;;;14.70;99.90;;;;;;5043708;28;20359;-65
2023/10/01 04:04:57;;;;;;;14.73;8.07;;;14.70;99.90;;;;;;5025696;28;20083;-63
2023/10/01 04:07:26;;;;;;;13.18;8.15;;;14.70;99.90;;;;;;5043256;28;20037;-63
2023/10/01 04:09:54;;;;;;;12.20;8.55;;;14.70;99.90;;;;;;5039716;28;20052;-63
2023/10/01 04:12:27;;;;;;;15.07;8.57;;;14.70;99.90;;;;;;5029190;28;20048;-63
2023/10/01 04:14:53;;;;;;;12.52;7.80;;;14.70;99.90;;;;;;5027447;28;20715;-63
2023/10/01 04:17:20;;;;;;;13.90;8.48;;;14.70;99.90;;;;;;5040772;28;20033;-63
2023/10/01 04:19:52;;;;;;;12.52;8.02;;;14.70;99.90;;;;;;5026089;28;20041;-63
2023/10/01 04:22:21;;;;;;;10.82;7.85;;;14.70;99.90;;;;;;5058629;28;20071;-62
2023/10/01 04:25:00;;;;;;;13.40;7.63;;;14.70;99.90;;;;;;5102446;28;20043;-63
2023/10/01 04:27:34;;;;;;;10.40;7.65;;;14.70;99.90;;;;;;5083539;28;20058;-62
2023/10/01 04:30:01;;;;;;;12.90;8.20;;;14.70;99.90;;;;;;5100960;28;20040;-63
2023/10/01 04:32:30;;;;;;;12.18;8.15;;;14.70;99.90;;;;;;5104689;28;20046;-64
2023/10/01 04:34:58;;;;;;;13.20;8.13;;;14.70;99.90;;;;;;5105008;28;20044;-63
2023/10/01 04:37:36;;;;;;;12.50;7.85;;;14.70;99.90;;;;;;5104576;28;20024;-63
2023/10/01 04:40:31;;;;;;;10.85;6.82;;;14.70;99.90;;;;;;5103431;28;20071;-63
2023/10/01 04:43:10;;;;;;;11.80;7.57;;;14.70;99.90;;;;;;5111395;27;20387;-63
2023/10/01 04:45:40;;;;;;;9.98;7.20;;;14.70;99.90;;;;;;5085880;28;20395;-63
2023/10/01 04:48:24;;;;;;;12.93;7.88;;;14.70;99.90;;;;;;5104003;28;20040;-64
2023/10/01 04:50:55;;;;;;;11.10;7.40;;;14.70;99.90;;;;;;5105123;28;20144;-63
2023/10/01 04:53:23;;;;;;;13.13;7.85;;;14.70;99.90;;;;;;5083385;28;20059;-63
2023/10/01 04:56:05;;;;;;;8.88;6.82;;;14.70;99.90;;;;;;5097820;28;20048;-63
2023/10/01 04:58:36;;;;;;;14.52;7.78;;;14.70;99.90;;;;;;5101088;28;20067;-63
2023/10/01 05:01:11;;;;;;;14.07;7.53;;;14.70;99.90;;;;;;5104261;28;20028;-63
2023/10/01 05:03:40;;;;;;;12.38;6.65;;;14.70;99.90;;;;;;5103446;27;20086;-64
2023/10/01 05:06:19;;;;;;;11.52;7.45;;;14.70;99.90;;;;;;5106567;27;20067;-64
2023/10/01 05:08:49;;;;;;;12.45;7.65;;;14.70;99.90;;;;;;5102746;27;20035;-62
2023/10/01 05:11:21;;;;;;;10.82;7.68;;;14.70;99.90;;;;;;5104809;27;20123;-63
2023/10/01 05:13:47;;;;;;;13.38;7.85;;;14.70;99.90;;;;;;5103517;27;20414;-64
2023/10/01 05:16:18;;;;;;;13.30;8.13;;;14.70;99.90;;;;;;5123910;27;20363;-63
2023/10/01 05:18:45;;;;;;;10.40;7.55;;;14.70;99.90;;;;;;5099115;28;20051;-63
2023/10/01 05:21:18;;;;;;;11.70;6.90;;;14.70;99.90;;;;;;5102488;28;20039;-63
2023/10/01 05:23:45;;;;;;;10.65;7.30;;;14.70;99.90;;;;;;5104323;28;20043;-65
2023/10/01 05:26:11;;;;;;;12.23;7.65;;;14.70;99.90;;;;;;5124333;28;20062;-63
2023/10/01 05:28:41;;;;;;;11.50;7.20;;;14.70;99.90;;;;;;5103426;28;20051;-62
2023/10/01 05:31:08;;;;;;;14.45;7.22;;;14.70;99.90;;;;;;5089468;27;20047;-63
2023/10/01 05:33:35;;;;;;;13.32;7.70;;;14.70;99.90;;;;;;5109262;27;20039;-63
2023/10/01 05:36:04;;;;;;;14.13;8.10;;;14.70;99.90;;;;;;5107371;27;20455;-63
2023/10/01 05:38:34;;;;;;;11.75;7.55;;;14.70;99.90;;;;;;5126545;27;20058;-63
2023/10/01 05:41:04;;;;;;;10.30;6.85;;;14.70;99.90;;;;;;5122652;27;20032;-63
2023/10/01 05:43:43;;;;;;;12.98;7.22;;;14.70;99.90;;;;;;5125622;27;20482;-63
2023/10/01 05:46:10;;;;;;;11.07;7.45;;;14.70;99.90;;;;;;5106466;27;20039;-64
2023/10/01 05:48:37;;;;;;;11.02;7.60;;;14.70;99.90;;;;;;5110281;27;20063;-64
2023/10/01 05:51:06;;;;;;;10.93;6.95;;;14.70;99.90;;;;;;5108347;27;20490;-64
2023/10/01 05:53:32;;;;;;;11.65;6.95;;;14.70;99.90;;;;;;5115304;27;20130;-64
2023/10/01 05:56:06;;;;;;;11.05;7.05;;;14.70;99.90;;;;;;5131621;27;20058;-64
2023/10/01 05:58:32;;;;;;;11.85;6.78;;;14.70;99.90;;;;;;5115863;27;20431;-64
2023/10/01 06:00:58;;;;;;;10.85;6.50;;;14.70;99.90;;;;;;5114876;27;20043;-64
2023/10/01 06:03:25;;;;;;;12.43;6.85;;;14.70;99.90;;;;;;5115756;27;20046;-65
2023/10/01 06:06:07;;;;;;;12.10;6.80;;;14.70;99.90;;;;;;5113473;27;20058;-64
2023/10/01 06:08:32;;;;;;;14.57;7.13;;;14.70;99.90;;;;;;5113947;27;20404;-64
2023/10/01 06:11:04;;;;;;;11.35;7.10;;;14.70;99.90;;;;;;5114052;27;20047;-64
2023/10/01 06:13:37;;;;;;;12.52;6.75;;;14.70;99.90;;;;;;5094668;27;20112;-63
2023/10/01 06:16:13;;;;;;;12.43;7.28;;;14.70;99.90;;;;;;5112728;27;20047;-63
2023/10/01 06:18:49;;;;;;;13.45;7.40;;;14.70;99.90;;;;;;5112801;27;20358;-63
2023/10/01 06:21:25;;;;;;;12.10;7.00;;;14.70;99.90;;;;;;5113839;27;20066;-64
2023/10/01 06:23:52;;;;;;;12.40;6.78;;;14.70;99.90;;;;;;5114769;27;20039;-64
2023/10/01 06:26:19;;;;;;;12.55;6.78;;;14.70;99.90;;;;;;5094429;27;20446;-63
2023/10/01 06:28:47;;;;;;;10.43;6.18;;;14.80;99.90;;;;;;5114841;27;20095;-63
2023/10/01 06:31:16;;;;;;;12.80;6.82;;;14.80;99.90;;;;;;5094576;27;20122;-63
2023/10/01 06:33:44;;;;;;;14.20;7.43;;;14.70;99.90;;;;;;5114335;27;20051;-64
2023/10/01 06:36:16;;;;;;;11.20;6.88;;;14.80;99.90;;;;;;5112161;27;20035;-65
2023/10/01 06:38:47;;;;;;;14.18;7.80;;;14.70;99.90;;;;;;5095799;27;20050;-64
2023/10/01 06:41:19;;;;;;;11.30;6.40;;;14.70;99.90;;;;;;5113299;27;20047;-65
2023/10/01 06:43:48;;;;;;;12.13;6.75;;;14.70;99.90;;;;;;5112758;27;20043;-64
2023/10/01 06:46:23;;;;;;;11.00;6.88;;;14.70;99.90;;;;;;5094409;27;20061;-64
2023/10/01 06:48:51;;;;;;;10.70;6.60;;;14.70;99.90;;;;;;5128755;27;20512;-64
2023/10/01 06:51:21;;;;;;;11.35;6.68;;;14.70;99.90;;;;;;5131002;27;20039;-64
2023/10/01 06:53:53;;;;;;;11.55;6.55;;;14.70;99.90;;;;;;5114089;27;20505;-63
2023/10/01 06:56:21;;;;;;;12.02;7.28;;;14.80;99.90;;;;;;5132789;27;20035;-63
2023/10/01 06:59:33;;;;;;;13.60;6.75;;;14.80;99.90;;;;;;5110323;27;20035;-65
2023/10/01 07:01:47;;;;;;;11.50;6.90;;;14.80;99.90;;;;;;5103437;27;20431;-62
2023/10/01 07:04:15;;;;;;;12.90;6.70;;;14.80;99.90;;;;;;5132726;27;20083;-63
2023/10/01 07:06:44;;;;;;;12.30;6.72;;;14.90;99.90;;;;;;5114766;27;20032;-64
2023/10/01 07:09:32;;;;;;;12.13;7.25;;;14.90;99.90;;;;;;5114079;27;20094;-64
2023/10/01 07:12:00;;;;;;;11.88;7.07;;;14.90;99.90;;;;;;5097310;27;20455;-65
2023/10/01 07:14:38;;;;;;;14.05;6.30;;;15.00;99.90;;;;;;5114105;27;20047;-63
2023/10/01 07:17:08;;;;;;;10.82;6.00;;;15.00;99.90;;;;;;5098316;27;20118;-65
2023/10/01 07:19:34;;;;;;;11.30;6.43;;;15.10;99.90;;;;;;5113115;27;20046;-65
2023/10/01 07:22:06;;;;;;;10.35;5.70;;;15.10;99.90;;;;;;5110163;27;20078;-64
2023/10/01 07:24:33;;;;;;;9.90;5.25;;;15.20;99.90;;;;;;5113090;27;20047;-64
2023/10/01 07:27:06;;;;;;;11.82;6.07;;;15.20;99.90;;;;;;5110113;27;20088;-65
2023/10/01 07:29:39;;;;;;;13.02;6.20;;;15.20;99.90;;;;;;5113027;27;20038;-63
2023/10/01 07:32:07;;;;;;;11.90;5.70;;;15.30;99.90;;;;;;5129578;27;20035;-62
2023/10/01 07:34:39;;;;;;;11.23;5.82;;;15.30;99.90;;;;;;5110470;27;20055;-63
2023/10/01 07:37:08;;;;;;;12.32;5.85;;;15.40;99.90;;;;;;5108715;27;20560;-63
2023/10/01 07:39:37;;;;;;;11.05;5.40;;;15.40;99.90;;;;;;5130735;27;20278;-62
2023/10/01 07:42:10;;;;;;;8.73;5.10;;;15.50;99.90;;;;;;5113272;27;20031;-63
2023/10/01 07:44:36;;;;;;;11.02;5.55;;;15.60;99.90;;;;;;5113311;27;20047;-62
2023/10/01 07:47:03;;;;;;;10.43;5.53;;;15.60;99.90;;;;;;5113098;27;20478;-64
2023/10/01 07:49:46;;;;;;;12.85;5.78;;;15.70;99.90;;;;;;5093468;27;20134;-64
2023/10/01 07:52:17;;;;;;;10.77;4.95;;;15.70;99.90;;;;;;5112844;27;20092;-64
2023/10/01 07:54:49;;;;;;;11.05;5.05;;;15.70;99.90;;;;;;5112790;27;20550;-64
2023/10/01 07:57:27;;;;;;;10.00;5.20;;;15.70;99.90;;;;;;5095038;27;20417;-63
2023/10/01 08:00:00;;;;;;;10.23;5.65;;;15.80;99.90;;;;;;5111044;27;20401;-64
2023/10/01 08:02:28;;;;;;;10.00;4.90;;;15.80;99.90;;;;;;5111289;27;20088;-64
2023/10/01 08:04:58;;;;;;;11.35;5.70;;;15.80;99.90;;;;;;5128068;27;20417;-63
2023/10/01 08:07:30;;;;;;;12.95;5.45;;;15.80;99.90;;;;;;5112906;27;20039;-64
2023/10/01 08:09:59;;;;;;;11.95;5.30;;;15.90;99.90;;;;;;5130141;27;21553;-64
2023/10/01 08:12:29;;;;;;;11.77;5.38;;;15.90;99.90;;;;;;5094801;27;20078;-63
2023/10/01 08:17:47;;;;;;;11.82;5.97;;;16.10;99.90;;;;;;5111590;27;20076;-63
2023/10/01 08:20:21;;;;;;;10.07;5.20;;;16.20;99.90;;;;;;5107386;27;20077;-64
2023/10/01 08:25:42;;;;;;;11.27;5.30;;;16.30;99.90;;;;;;5131399;27;20141;-62
2023/10/01 08:28:26;;;;;;;12.45;5.65;;;16.30;99.90;;;;;;5113142;27;20038;-63
2023/10/01 08:31:01;;;;;;;15.77;5.43;;;16.30;99.90;;;;;;5092143;27;20035;-64
2023/10/01 08:33:33;;;;;;;11.40;5.28;;;16.30;99.90;;;;;;5113666;27;20553;-63
2023/10/01 08:36:24;;;;;;;11.32;5.65;;;16.30;99.90;;;;;;5113006;27;20156;-63
2023/10/01 08:39:19;;;;;;;11.85;5.32;;;16.40;99.90;;;;;;5107181;27;20114;-64
2023/10/01 08:41:47;;;;;;;12.98;6.03;;;16.50;99.90;;;;;;5112013;27;20055;-63
2023/10/01 08:44:19;;;;;;;9.80;5.10;;;16.50;99.90;;;;;;5109579;27;20066;-62
2023/10/01 08:46:45;;;;;;;14.02;6.03;;;16.60;99.90;;;;;;5112885;27;20057;-63
2023/10/01 08:49:30;;;;;;;17.63;7.43;;;16.60;99.90;;;;;;5112372;27;20133;-64
2023/10/01 08:52:19;;;;;;;11.18;5.57;;;16.70;99.90;;;;;;5128458;27;20074;-63
2023/10/01 08:54:45;;;;;;;10.25;5.50;;;16.90;99.90;;;;;;5110662;27;20043;-63
2023/10/01 08:57:36;;;;;;;13.15;6.40;;;17.10;99.90;;;;;;5111969;27;20043;-62
2023/10/01 09:00:14;;;;;;;12.07;5.40;;;17.30;99.90;;;;;;5112342;27;20042;-62
2023/10/01 09:02:40;;;;;;;12.45;6.00;;;17.60;99.90;;;;;;5130498;27;20043;-63
2023/10/01 09:05:09;;;;;;;13.73;6.13;;;17.80;99.90;;;;;;5112175;28;20550;-62
2023/10/01 09:07:41;;;;;;;13.65;5.40;;;17.80;99.90;;;;;;5112686;27;20074;-64
2023/10/01 09:10:17;;;;;;;14.80;6.20;;;17.80;99.90;;;;;;5112981;27;20582;-64
2023/10/01 09:12:46;;;;;;;10.68;5.25;;;17.70;99.90;;;;;;5112571;27;20039;-63
2023/10/01 09:15:24;;;;;;;14.15;6.00;;;17.70;99.90;;;;;;5130960;27;20035;-63
2023/10/01 09:17:56;;;;;;;12.93;5.75;;;17.60;99.90;;;;;;5131327;27;20498;-64
2023/10/01 09:20:42;;;;;;;14.20;5.82;;;17.60;99.90;;;;;;5112604;28;20077;-63
2023/10/01 09:23:08;;;;;;;10.25;5.35;;;17.60;99.90;;;;;;5130876;28;20035;-63
2023/10/01 09:25:39;;;;;;;12.35;5.55;;;17.60;99.90;;;;;;5112548;28;20027;-62
2023/10/01 09:28:29;;;;;;;13.20;5.43;;;17.60;99.90;;;;;;5112474;28;20039;-63
2023/10/01 09:31:02;;;;;;;11.63;5.70;;;17.60;99.90;;;;;;5112689;28;20058;-62
2023/10/01 09:33:29;;;;;;;13.45;5.82;;;17.70;99.90;;;;;;5130664;28;20121;-63
2023/10/01 09:36:02;;;;;;;14.45;6.25;;;17.70;99.90;;;;;;5112167;28;20042;-63
2023/10/01 09:38:28;;;;;;;14.95;6.53;;;17.70;99.90;;;;;;5129582;28;20035;-62
2023/10/01 09:40:55;;;;;;;11.65;5.60;;;17.70;99.90;;;;;;5112121;28;20050;-63
2023/10/01 09:43:27;;;;;;;14.35;5.88;;;17.70;99.90;;;;;;5111611;28;20043;-64
2023/10/01 09:45:54;;;;;;;16.23;6.18;;;17.80;99.90;;;;;;5112069;28;20035;-64
2023/10/01 09:48:33;;;;;;;11.13;5.10;;;18.00;99.90;;;;;;5111997;28;20039;-63
2023/10/01 09:51:08;;;;;;;13.40;6.30;;;18.20;99.90;;;;;;5111145;28;20127;-63
2023/10/01 09:53:44;;;;;;;13.68;5.90;;;18.30;99.90;;;;;;5111790;28;20058;-63
2023/10/01 09:56:26;;;;;;;13.30;5.70;;;18.40;99.90;;;;;;5111148;28;20042;-63
2023/10/01 09:59:19;;;;;;;11.35;5.80;;;18.50;99.90;;;;;;5111302;28;20042;-65
2023/10/01 10:01:47;;;;;;;12.75;5.55;;;18.50;99.90;;;;;;5109704;28;20143;-65
2023/10/01 10:04:20;;;;;;;14.73;6.15;;;18.50;99.90;;;;;;5111387;28;20043;-63
2023/10/01 10:06:59;;;;;;;12.25;6.20;;;18.50;99.90;;;;;;5109006;28;20047;-64
2023/10/01 10:09:26;;;;;;;11.77;5.80;;;18.50;99.90;;;;;;5127772;28;20043;-63
2023/10/01 10:11:53;;;;;;;12.43;5.88;;;18.70;99.90;;;;;;5110161;27;20051;-62
2023/10/01 10:14:28;;;;;;;11.07;5.95;;;18.80;99.90;;;;;;5129060;27;20039;-63
2023/10/01 10:16:58;;;;;;;12.52;6.25;;;18.90;99.90;;;;;;5111594;27;20512;-63
2023/10/01 10:19:24;;;;;;;15.93;7.05;;;18.90;99.90;;;;;;5112908;27;20115;-63
2023/10/01 10:24:33;;;;;;;12.27;5.50;;;18.90;99.90;;;;;;5113540;27;20062;-63
2023/10/01 10:27:07;;;;;;;11.93;5.63;;;18.90;99.90;;;;;;5114028;27;20035;-62
2023/10/01 10:29:57;;;;;;;16.20;6.82;;;19.00;99.90;;;;;;5113621;27;20372;-64
2023/10/01 10:32:26;;;;;;;14.77;5.88;;;19.10;99.90;;;;;;5113901;27;20511;-63
2023/10/01 10:35:04;;;;;;;11.27;5.78;;;19.20;99.90;;;;;;5133437;27;20039;-62
2023/10/01 10:43:06;;;;;;;12.43;5.82;;;19.50;99.90;;;;;;5115275;27;20116;-65
2023/10/01 10:45:45;;;;;;;13.20;6.20;;;19.60;99.90;;;;;;5115063;27;20046;-63
2023/10/01 10:48:21;;;;;;;13.95;6.57;;;19.80;99.90;;;;;;5115370;27;20051;-64
2023/10/01 10:50:54;;;;;;;12.65;5.80;;;19.90;99.90;;;;;;5113251;27;20393;-64
2023/10/01 10:53:39;;;;;;;12.45;6.20;;;19.90;99.90;;;;;;5131230;27;20031;-64
2023/10/01 10:56:10;;;;;;;11.85;5.50;;;20.00;99.90;;;;;;5131272;27;20035;-63
2023/10/01 10:58:43;;;;;;;12.97;5.77;;;20.10;99.90;;;;;;5133377;27;20066;-63
2023/10/01 11:01:16;;;;;;;13.98;6.20;;;20.10;99.90;;;;;;5114826;27;20122;-64
2023/10/01 11:03:58;;;;;;;11.98;6.45;;;20.00;99.90;;;;;;5131331;27;20035;-64
2023/10/01 11:06:29;;;;;;;12.70;6.32;;;19.90;99.90;;;;;;5114600;27;20397;-63
2023/10/01 11:08:56;;;;;;;12.75;5.97;;;19.90;99.90;;;;;;5099989;27;20035;-64
2023/10/01 11:11:23;;;;;;;12.93;5.88;;;20.00;99.90;;;;;;5132929;27;20038;-64
2023/10/01 11:13:59;;;;;;;15.25;6.25;;;20.00;99.90;;;;;;5113732;27;20403;-63
2023/10/01 11:16:39;;;;;;;12.50;6.07;;;20.10;99.90;;;;;;5112215;27;20610;-65
2023/10/01 11:19:16;;;;;;;12.80;5.93;;;20.20;99.90;;;;;;5112355;27;20122;-64
2023/10/01 11:21:56;;;;;;;12.02;5.75;;;20.20;99.90;;;;;;5114507;27;20039;-65
2023/10/01 11:24:32;;;;;;;12.27;5.97;;;20.30;99.90;;;;;;5130127;27;20077;-64
2023/10/01 11:27:22;;;;;;;12.45;6.13;;;20.20;99.90;;;;;;5115095;27;20062;-63
2023/10/01 11:30:17;;;;;;;10.68;5.97;;;20.20;99.90;;;;;;5115677;27;20481;-63
2023/10/01 11:33:03;;;;;;;12.65;6.00;;;20.20;99.90;;;;;;5114721;27;20043;-64
2023/10/01 11:35:33;;;;;;;10.82;5.72;;;20.40;99.90;;;;;;5097674;27;20486;-63
2023/10/01 11:38:21;;;;;;;12.55;6.63;;;20.50;99.90;;;;;;5111630;27;20108;-62
2023/10/01 11:41:07;;;;;;;13.85;6.15;;;20.50;99.90;;;;;;5112712;27;20043;-64
2023/10/01 11:43:39;;;;;;;12.68;6.05;;;20.50;99.90;;;;;;5114207;27;20054;-63
2023/10/01 11:46:19;;;;;;;13.07;6.07;;;20.50;99.90;;;;;;5132012;27;20067;-63
2023/10/01 11:49:06;;;;;;;13.77;6.22;;;20.60;99.90;;;;;;5113922;27;20506;-65
2023/10/01 11:51:38;;;;;;;12.90;6.50;;;20.70;99.90;;;;;;5114322;27;20043;-64
2023/10/01 11:54:10;;;;;;;11.40;5.68;;;20.70;99.90;;;;;;5114234;27;20051;-64
2023/10/01 11:56:41;;;;;;;12.20;5.68;;;20.60;99.90;;;;;;5111568;27;20058;-64
2023/10/01 11:59:18;;;;;;;9.30;4.93;;;20.60;99.90;;;;;;5111256;27;20046;-64
2023/10/01 12:01:53;;;;;;;12.30;5.75;;;20.60;99.90;;;;;;5121682;27;20130;-64
2023/10/01 12:04:43;;;;;;;12.00;5.97;;;20.60;99.90;;;;;;5094139;27;20047;-64
2023/10/01 12:07:16;;;;;;;12.57;5.88;;;20.70;99.90;;;;;;5107646;27;20055;-64
2023/10/01 12:09:48;;;;;;;11.25;5.28;;;20.70;99.90;;;;;;5112594;27;20031;-63
2023/10/01 12:12:14;;;;;;;11.00;5.53;;;20.80;99.90;;;;;;5111496;27;20039;-64
2023/10/01 12:14:56;;;;;;;9.48;5.18;;;20.90;99.90;;;;;;5099363;27;20183;-64
2023/10/01 12:17:28;;;;;;;10.65;5.57;;;20.90;99.90;;;;;;5106017;27;20474;-63
2023/10/01 12:19:55;;;;;;;;;;;20.90;99.90;;;;;;5125733;27;20030;-64
2023/10/01 12:22:23;;;;;;;11.60;5.03;;;20.90;99.90;;;;;;5110778;27;19919;-64
2023/10/01 12:24:56;;;;;;;9.73;5.57;;;21.00;99.90;;;;;;5105497;27;20490;-64
2023/10/01 12:27:40;;;;;;;10.57;5.38;;;21.10;99.90;;;;;;5095241;27;20044;-65
2023/10/01 12:30:11;;;;;;;10.70;5.45;;;21.10;99.90;;;;;;5077994;27;20070;-64
2023/10/01 12:32:47;;;;;;;13.80;5.65;;;21.10;99.90;;;;;;5094214;27;20089;-65
2023/10/01 12:35:27;;;;;;;11.02;5.70;;;21.10;99.90;;;;;;5076861;27;20043;-64
2023/10/01 12:38:22;;;;;;;9.57;5.32;;;21.10;99.90;;;;;;5095429;27;20031;-65
2023/10/01 12:40:52;;;;;;;12.45;6.10;;;21.10;99.90;;;;;;5092250;27;20050;-65
2023/10/01 12:43:37;;;;;;;11.27;5.70;;;21.10;99.90;;;;;;5097773;27;20051;-65
2023/10/01 12:46:13;;;;;;;12.25;6.47;;;21.10;99.90;;;;;;5077389;27;20047;-63
2023/10/01 12:49:14;;;;;;;10.95;5.82;;;21.20;99.90;;;;;;5090605;27;20048;-65
2023/10/01 12:51:33;;;;;;;11.68;6.05;;;21.10;99.90;;;;;;5115583;27;20070;-64
2023/10/01 12:53:59;;;;;;;11.73;5.60;;;21.10;99.90;;;;;;5105552;27;20070;-64
2023/10/01 12:56:44;;;;;;;10.13;5.40;;;21.10;99.90;;;;;;5127552;27;20129;-64
2023/10/01 12:59:18;;;;;;;9.27;5.07;;;21.10;99.90;;;;;;5092806;27;20053;-65
2023/10/01 13:01:50;;;;;;;13.73;5.65;;;21.10;99.90;;;;;;5130904;27;20047;-64
2023/10/01 13:04:25;;;;;;;10.27;5.50;;;21.10;99.90;;;;;;5112523;27;20463;-64
2023/10/01 13:07:03;;;;;;;11.10;5.75;;;21.00;99.90;;;;;;5106493;28;20044;-64
2023/10/01 13:12:14;;;;;;;13.55;5.97;;;21.00;99.90;;;;;;5109977;28;20093;-64
2023/10/01 13:14:41;;;;;;;11.60;6.00;;;21.00;99.90;;;;;;5108051;28;20056;-64
2023/10/01 13:17:19;;;;;;;10.98;5.43;;;21.10;99.90;;;;;;5106026;28;20066;-64
2023/10/01 13:19:48;;;;;;;12.27;6.22;;;21.10;99.90;;;;;;5106749;28;20040;-64
2023/10/01 13:22:16;;;;;;;11.20;5.82;;;21.20;99.90;;;;;;5108344;28;20058;-65
2023/10/01 13:24:42;;;;;;;11.10;5.57;;;21.40;99.90;;;;;;5109643;28;20092;-64
2023/10/01 13:27:10;;;;;;;12.60;5.40;;;21.40;99.90;;;;;;5107185;28;20035;-65
2023/10/01 13:29:40;;;;;;;12.02;5.70;;;21.40;99.90;;;;;;5108741;28;20039;-64
2023/10/01 13:32:32;;;;;;;11.45;5.80;;;21.40;99.90;;;;;;5109028;28;20563;-65
2023/10/01 13:34:56;;;;;;;13.00;5.90;;;21.50;99.90;;;;;;5108632;28;20040;-64
2023/10/01 13:40:11;;;;;;;14.75;6.65;;;21.70;99.90;;;;;;5108924;28;20122;-65
2023/10/01 14:10:04;;;;;;;10.30;5.47;;;21.80;99.90;;;;;;5091615;28;20044;-64
2023/10/01 14:15:21;;;;;;;11.95;5.72;;;21.70;99.90;;;;;;5092014;28;20077;-64